sensor_id;sensor_type;location;lat;lon;timestamp;P1;durP1;ratioP1;P2;durP2;ratioP2
38717;SDS011;24468;52.128;9.278;2023-02-20T00:00:24;5.90;;;5.00;;
38717;SDS011;24468;52.128;9.278;2023-02-20T00:02:55;5.45;;;4.57;;
38717;SDS011;24468;52.128;9.278;2023-02-20T00:05:22;4.90;;;4.43;;
38717;SDS011;24468;52.128;9.278;2023-02-20T00:07:48;6.03;;;4.60;;
38717;SDS011;24468;52.128;9.278;2023-02-20T00:10:14;5.15;;;4.40;;
38717;SDS011;24468;52.128;9.278;2023-02-20T00:12:40;5.30;;;4.78;;
38717;SDS011;24468;52.128;9.278;2023-02-20T00:15:06;8.68;;;5.78;;
38717;SDS011;24468;52.128;9.278;2023-02-20T00:17:33;6.93;;;5.25;;
38717;SDS011;24468;52.128;9.278;2023-02-20T00:19:58;5.55;;;5.00;;
38717;SDS011;24468;52.128;9.278;2023-02-20T00:22:26;5.22;;;4.70;;
38717;SDS011;24468;52.128;9.278;2023-02-20T00:24:51;6.30;;;4.82;;
38717;SDS011;24468;52.128;9.278;2023-02-20T00:27:17;4.95;;;4.40;;
38717;SDS011;24468;52.128;9.278;2023-02-20T00:29:44;5.55;;;4.55;;
38717;SDS011;24468;52.128;9.278;2023-02-20T00:32:10;5.20;;;4.63;;
38717;SDS011;24468;52.128;9.278;2023-02-20T00:34:35;4.93;;;4.28;;
38717;SDS011;24468;52.128;9.278;2023-02-20T00:37:01;4.97;;;4.45;;
38717;SDS011;24468;52.128;9.278;2023-02-20T00:39:26;4.72;;;4.30;;
38717;SDS011;24468;52.128;9.278;2023-02-20T00:41:53;5.55;;;4.07;;
38717;SDS011;24468;52.128;9.278;2023-02-20T00:44:20;4.32;;;3.92;;
38717;SDS011;24468;52.128;9.278;2023-02-20T00:46:46;4.45;;;3.42;;
38717;SDS011;24468;52.128;9.278;2023-02-20T00:49:11;4.32;;;3.40;;
38717;SDS011;24468;52.128;9.278;2023-02-20T00:51:37;4.40;;;4.00;;
38717;SDS011;24468;52.128;9.278;2023-02-20T00:54:02;4.80;;;3.92;;
38717;SDS011;24468;52.128;9.278;2023-02-20T00:56:28;3.78;;;3.47;;
38717;SDS011;24468;52.128;9.278;2023-02-20T00:58:54;4.57;;;4.03;;
38717;SDS011;24468;52.128;9.278;2023-02-20T01:01:19;4.32;;;3.92;;
38717;SDS011;24468;52.128;9.278;2023-02-20T01:03:46;4.78;;;4.35;;
38717;SDS011;24468;52.128;9.278;2023-02-20T01:06:12;4.68;;;4.28;;
38717;SDS011;24468;52.128;9.278;2023-02-20T01:08:37;4.75;;;4.25;;
38717;SDS011;24468;52.128;9.278;2023-02-20T01:11:03;4.57;;;4.10;;
38717;SDS011;24468;52.128;9.278;2023-02-20T01:13:29;4.57;;;4.18;;
38717;SDS011;24468;52.128;9.278;2023-02-20T01:15:54;4.50;;;4.10;;
38717;SDS011;24468;52.128;9.278;2023-02-20T01:18:20;6.00;;;5.20;;
38717;SDS011;24468;52.128;9.278;2023-02-20T01:20:45;7.20;;;5.35;;
38717;SDS011;24468;52.128;9.278;2023-02-20T01:23:11;6.20;;;5.38;;
38717;SDS011;24468;52.128;9.278;2023-02-20T01:25:37;6.40;;;5.80;;
38717;SDS011;24468;52.128;9.278;2023-02-20T01:28:02;6.15;;;5.55;;
38717;SDS011;24468;52.128;9.278;2023-02-20T01:30:28;6.82;;;5.75;;
38717;SDS011;24468;52.128;9.278;2023-02-20T01:32:53;6.95;;;5.70;;
38717;SDS011;24468;52.128;9.278;2023-02-20T01:35:19;6.93;;;5.30;;
38717;SDS011;24468;52.128;9.278;2023-02-20T01:37:45;6.53;;;5.82;;
38717;SDS011;24468;52.128;9.278;2023-02-20T01:40:18;7.63;;;6.57;;
38717;SDS011;24468;52.128;9.278;2023-02-20T01:42:47;8.85;;;6.15;;
38717;SDS011;24468;52.128;9.278;2023-02-20T01:45:35;7.85;;;6.80;;
38717;SDS011;24468;52.128;9.278;2023-02-20T01:48:03;8.93;;;6.72;;
38717;SDS011;24468;52.128;9.278;2023-02-20T01:50:31;7.10;;;6.40;;
38717;SDS011;24468;52.128;9.278;2023-02-20T01:53:10;7.68;;;6.13;;
38717;SDS011;24468;52.128;9.278;2023-02-20T01:58:36;7.72;;;6.85;;
38717;SDS011;24468;52.128;9.278;2023-02-20T02:01:07;9.60;;;7.68;;
38717;SDS011;24468;52.128;9.278;2023-02-20T02:03:34;8.85;;;7.20;;
38717;SDS011;24468;52.128;9.278;2023-02-20T02:06:05;8.45;;;7.53;;
38717;SDS011;24468;52.128;9.278;2023-02-20T02:08:35;9.50;;;7.80;;
38717;SDS011;24468;52.128;9.278;2023-02-20T02:13:41;10.48;;;8.77;;
38717;SDS011;24468;52.128;9.278;2023-02-20T02:25:12;9.82;;;8.15;;
38717;SDS011;24468;52.128;9.278;2023-02-20T02:30:49;11.57;;;8.65;;
38717;SDS011;24468;52.128;9.278;2023-02-20T02:39:59;8.75;;;7.72;;
38717;SDS011;24468;52.128;9.278;2023-02-20T02:48:13;11.05;;;9.73;;
38717;SDS011;24468;52.128;9.278;2023-02-20T02:50:44;13.15;;;10.68;;
38717;SDS011;24468;52.128;9.278;2023-02-20T02:53:13;13.55;;;10.80;;
38717;SDS011;24468;52.128;9.278;2023-02-20T02:55:39;14.48;;;13.07;;
38717;SDS011;24468;52.128;9.278;2023-02-20T02:58:04;15.35;;;13.63;;
38717;SDS011;24468;52.128;9.278;2023-02-20T03:00:48;17.95;;;13.38;;
38717;SDS011;24468;52.128;9.278;2023-02-20T03:03:24;18.35;;;13.77;;
38717;SDS011;24468;52.128;9.278;2023-02-20T03:06:10;15.93;;;13.63;;
38717;SDS011;24468;52.128;9.278;2023-02-20T03:11:21;17.63;;;13.63;;
38717;SDS011;24468;52.128;9.278;2023-02-20T03:13:52;15.93;;;13.30;;
38717;SDS011;24468;52.128;9.278;2023-02-20T03:19:36;16.20;;;13.80;;
38717;SDS011;24468;52.128;9.278;2023-02-20T03:22:13;15.88;;;12.43;;
38717;SDS011;24468;52.128;9.278;2023-02-20T03:24:45;14.90;;;12.63;;
38717;SDS011;24468;52.128;9.278;2023-02-20T03:27:32;14.88;;;12.38;;
38717;SDS011;24468;52.128;9.278;2023-02-20T03:30:11;15.10;;;12.57;;
38717;SDS011;24468;52.128;9.278;2023-02-20T03:33:03;17.65;;;12.73;;
38717;SDS011;24468;52.128;9.278;2023-02-20T03:35:59;17.58;;;13.15;;
38717;SDS011;24468;52.128;9.278;2023-02-20T03:38:49;13.77;;;11.65;;
38717;SDS011;24468;52.128;9.278;2023-02-20T03:41:41;16.92;;;12.93;;
38717;SDS011;24468;52.128;9.278;2023-02-20T03:44:29;15.68;;;11.80;;
38717;SDS011;24468;52.128;9.278;2023-02-20T03:46:57;16.10;;;13.38;;
38717;SDS011;24468;52.128;9.278;2023-02-20T03:49:27;16.83;;;13.55;;
38717;SDS011;24468;52.128;9.278;2023-02-20T03:51:59;15.13;;;12.50;;
38717;SDS011;24468;52.128;9.278;2023-02-20T03:54:25;17.65;;;13.02;;
38717;SDS011;24468;52.128;9.278;2023-02-20T03:56:54;15.55;;;11.10;;
38717;SDS011;24468;52.128;9.278;2023-02-20T03:59:30;14.95;;;11.95;;
38717;SDS011;24468;52.128;9.278;2023-02-20T04:02:05;19.02;;;12.45;;
38717;SDS011;24468;52.128;9.278;2023-02-20T04:04:39;13.98;;;11.55;;
38717;SDS011;24468;52.128;9.278;2023-02-20T04:07:14;15.98;;;11.38;;
38717;SDS011;24468;52.128;9.278;2023-02-20T04:09:48;13.05;;;11.00;;
38717;SDS011;24468;52.128;9.278;2023-02-20T04:12:16;13.15;;;10.65;;
38717;SDS011;24468;52.128;9.278;2023-02-20T04:14:50;13.65;;;9.80;;
38717;SDS011;24468;52.128;9.278;2023-02-20T04:17:19;13.00;;;10.57;;
38717;SDS011;24468;52.128;9.278;2023-02-20T04:19:54;15.15;;;11.02;;
38717;SDS011;24468;52.128;9.278;2023-02-20T04:22:21;14.82;;;11.32;;
38717;SDS011;24468;52.128;9.278;2023-02-20T04:24:59;16.40;;;10.80;;
38717;SDS011;24468;52.128;9.278;2023-02-20T04:27:30;14.63;;;9.68;;
38717;SDS011;24468;52.128;9.278;2023-02-20T04:29:56;14.82;;;9.52;;
38717;SDS011;24468;52.128;9.278;2023-02-20T04:32:22;13.93;;;10.15;;
38717;SDS011;24468;52.128;9.278;2023-02-20T04:34:47;12.50;;;8.70;;
38717;SDS011;24468;52.128;9.278;2023-02-20T04:37:15;11.25;;;9.50;;
38717;SDS011;24468;52.128;9.278;2023-02-20T04:39:43;13.00;;;9.05;;
38717;SDS011;24468;52.128;9.278;2023-02-20T04:42:10;12.38;;;8.88;;
38717;SDS011;24468;52.128;9.278;2023-02-20T04:44:36;18.13;;;9.88;;
38717;SDS011;24468;52.128;9.278;2023-02-20T04:47:05;12.52;;;9.27;;
38717;SDS011;24468;52.128;9.278;2023-02-20T04:49:35;15.25;;;9.63;;
38717;SDS011;24468;52.128;9.278;2023-02-20T04:52:00;16.63;;;8.80;;
38717;SDS011;24468;52.128;9.278;2023-02-20T04:54:26;15.18;;;9.73;;
38717;SDS011;24468;52.128;9.278;2023-02-20T04:56:51;15.88;;;10.57;;
38717;SDS011;24468;52.128;9.278;2023-02-20T04:59:17;13.70;;;9.27;;
38717;SDS011;24468;52.128;9.278;2023-02-20T05:01:43;18.05;;;10.13;;
38717;SDS011;24468;52.128;9.278;2023-02-20T05:04:12;12.23;;;9.63;;
38717;SDS011;24468;52.128;9.278;2023-02-20T05:06:43;15.85;;;8.80;;
38717;SDS011;24468;52.128;9.278;2023-02-20T05:09:15;15.00;;;9.35;;
38717;SDS011;24468;52.128;9.278;2023-02-20T05:11:41;13.48;;;9.18;;
38717;SDS011;24468;52.128;9.278;2023-02-20T05:14:07;14.20;;;9.32;;
38717;SDS011;24468;52.128;9.278;2023-02-20T05:16:36;17.95;;;10.50;;
38717;SDS011;24468;52.128;9.278;2023-02-20T05:19:03;16.52;;;9.23;;
38717;SDS011;24468;52.128;9.278;2023-02-20T05:21:29;14.10;;;8.73;;
38717;SDS011;24468;52.128;9.278;2023-02-20T05:24:14;14.95;;;9.70;;
38717;SDS011;24468;52.128;9.278;2023-02-20T05:26:40;11.48;;;8.25;;
38717;SDS011;24468;52.128;9.278;2023-02-20T05:29:05;16.13;;;9.02;;
38717;SDS011;24468;52.128;9.278;2023-02-20T05:31:33;12.65;;;8.38;;
38717;SDS011;24468;52.128;9.278;2023-02-20T05:34:00;11.30;;;7.07;;
38717;SDS011;24468;52.128;9.278;2023-02-20T05:36:25;12.65;;;8.63;;
38717;SDS011;24468;52.128;9.278;2023-02-20T05:38:51;11.23;;;7.57;;
38717;SDS011;24468;52.128;9.278;2023-02-20T05:41:17;10.88;;;7.75;;
38717;SDS011;24468;52.128;9.278;2023-02-20T05:43:43;15.50;;;7.20;;
38717;SDS011;24468;52.128;9.278;2023-02-20T05:46:09;11.18;;;6.90;;
38717;SDS011;24468;52.128;9.278;2023-02-20T05:48:35;11.40;;;7.15;;
38717;SDS011;24468;52.128;9.278;2023-02-20T05:51:01;15.32;;;7.70;;
38717;SDS011;24468;52.128;9.278;2023-02-20T05:53:27;11.75;;;7.30;;
38717;SDS011;24468;52.128;9.278;2023-02-20T05:55:54;13.38;;;7.75;;
38717;SDS011;24468;52.128;9.278;2023-02-20T05:58:19;9.50;;;6.85;;
38717;SDS011;24468;52.128;9.278;2023-02-20T06:00:45;15.15;;;6.88;;
38717;SDS011;24468;52.128;9.278;2023-02-20T06:03:10;12.02;;;7.53;;
38717;SDS011;24468;52.128;9.278;2023-02-20T06:05:38;8.55;;;6.90;;
38717;SDS011;24468;52.128;9.278;2023-02-20T06:08:04;16.80;;;6.93;;
38717;SDS011;24468;52.128;9.278;2023-02-20T06:10:30;12.00;;;6.72;;
38717;SDS011;24468;52.128;9.278;2023-02-20T06:12:56;11.32;;;6.88;;
38717;SDS011;24468;52.128;9.278;2023-02-20T06:15:21;10.13;;;7.05;;
38717;SDS011;24468;52.128;9.278;2023-02-20T06:17:47;13.45;;;6.57;;
38717;SDS011;24468;52.128;9.278;2023-02-20T06:20:13;12.52;;;6.43;;
38717;SDS011;24468;52.128;9.278;2023-02-20T06:22:39;13.20;;;6.97;;
38717;SDS011;24468;52.128;9.278;2023-02-20T06:25:05;10.02;;;6.72;;
38717;SDS011;24468;52.128;9.278;2023-02-20T06:27:31;12.68;;;6.97;;
38717;SDS011;24468;52.128;9.278;2023-02-20T06:29:56;9.05;;;6.88;;
38717;SDS011;24468;52.128;9.278;2023-02-20T06:32:22;11.13;;;6.63;;
38717;SDS011;24468;52.128;9.278;2023-02-20T06:34:47;12.65;;;6.75;;
38717;SDS011;24468;52.128;9.278;2023-02-20T06:37:13;10.25;;;7.22;;
38717;SDS011;24468;52.128;9.278;2023-02-20T06:39:38;12.35;;;7.28;;
38717;SDS011;24468;52.128;9.278;2023-02-20T06:42:06;12.52;;;7.30;;
38717;SDS011;24468;52.128;9.278;2023-02-20T06:44:32;13.40;;;8.10;;
38717;SDS011;24468;52.128;9.278;2023-02-20T06:46:58;9.60;;;8.00;;
38717;SDS011;24468;52.128;9.278;2023-02-20T06:49:24;13.32;;;8.23;;
38717;SDS011;24468;52.128;9.278;2023-02-20T06:51:53;11.73;;;7.20;;
38717;SDS011;24468;52.128;9.278;2023-02-20T06:54:19;12.98;;;7.38;;
38717;SDS011;24468;52.128;9.278;2023-02-20T06:56:46;10.68;;;7.97;;
38717;SDS011;24468;52.128;9.278;2023-02-20T06:59:12;12.52;;;7.72;;
38717;SDS011;24468;52.128;9.278;2023-02-20T07:01:39;14.43;;;8.35;;
38717;SDS011;24468;52.128;9.278;2023-02-20T07:04:14;13.25;;;7.70;;
38717;SDS011;24468;52.128;9.278;2023-02-20T07:06:44;11.98;;;8.35;;
38717;SDS011;24468;52.128;9.278;2023-02-20T07:09:09;12.73;;;7.65;;
38717;SDS011;24468;52.128;9.278;2023-02-20T07:11:35;13.05;;;7.72;;
38717;SDS011;24468;52.128;9.278;2023-02-20T07:14:00;16.17;;;8.13;;
38717;SDS011;24468;52.128;9.278;2023-02-20T07:16:26;13.05;;;7.72;;
38717;SDS011;24468;52.128;9.278;2023-02-20T07:18:51;14.15;;;9.93;;
38717;SDS011;24468;52.128;9.278;2023-02-20T07:21:17;12.05;;;7.45;;
38717;SDS011;24468;52.128;9.278;2023-02-20T07:23:43;12.57;;;8.57;;
38717;SDS011;24468;52.128;9.278;2023-02-20T07:26:16;12.38;;;8.52;;
38717;SDS011;24468;52.128;9.278;2023-02-20T07:28:43;14.68;;;9.85;;
38717;SDS011;24468;52.128;9.278;2023-02-20T07:31:09;17.52;;;10.13;;
38717;SDS011;24468;52.128;9.278;2023-02-20T07:33:34;15.68;;;9.32;;
38717;SDS011;24468;52.128;9.278;2023-02-20T07:36:00;12.63;;;9.27;;
38717;SDS011;24468;52.128;9.278;2023-02-20T07:38:25;14.68;;;10.43;;
38717;SDS011;24468;52.128;9.278;2023-02-20T07:40:51;14.02;;;10.13;;
38717;SDS011;24468;52.128;9.278;2023-02-20T07:43:16;13.77;;;9.68;;
38717;SDS011;24468;52.128;9.278;2023-02-20T07:45:42;15.20;;;10.40;;
38717;SDS011;24468;52.128;9.278;2023-02-20T07:48:07;17.30;;;10.55;;
38717;SDS011;24468;52.128;9.278;2023-02-20T07:50:33;13.98;;;10.02;;
38717;SDS011;24468;52.128;9.278;2023-02-20T07:52:59;17.05;;;10.82;;
38717;SDS011;24468;52.128;9.278;2023-02-20T07:55:24;13.98;;;10.85;;
38717;SDS011;24468;52.128;9.278;2023-02-20T07:57:50;12.07;;;10.57;;
38717;SDS011;24468;52.128;9.278;2023-02-20T08:00:18;15.32;;;10.55;;
38717;SDS011;24468;52.128;9.278;2023-02-20T08:02:45;17.13;;;11.32;;
38717;SDS011;24468;52.128;9.278;2023-02-20T08:05:10;20.85;;;13.43;;
38717;SDS011;24468;52.128;9.278;2023-02-20T08:07:37;14.77;;;11.80;;
38717;SDS011;24468;52.128;9.278;2023-02-20T08:10:03;16.85;;;11.77;;
38717;SDS011;24468;52.128;9.278;2023-02-20T08:12:29;22.02;;;13.20;;
38717;SDS011;24468;52.128;9.278;2023-02-20T08:14:55;16.67;;;12.90;;
38717;SDS011;24468;52.128;9.278;2023-02-20T08:17:20;16.92;;;13.95;;
38717;SDS011;24468;52.128;9.278;2023-02-20T08:19:46;17.00;;;12.85;;
38717;SDS011;24468;52.128;9.278;2023-02-20T08:22:11;16.67;;;13.45;;
38717;SDS011;24468;52.128;9.278;2023-02-20T08:24:37;19.85;;;14.13;;
38717;SDS011;24468;52.128;9.278;2023-02-20T08:27:02;24.23;;;15.23;;
38717;SDS011;24468;52.128;9.278;2023-02-20T08:29:28;19.33;;;16.02;;
38717;SDS011;24468;52.128;9.278;2023-02-20T08:31:54;24.35;;;17.67;;
38717;SDS011;24468;52.128;9.278;2023-02-20T08:34:20;25.95;;;15.40;;
38717;SDS011;24468;52.128;9.278;2023-02-20T08:36:45;21.88;;;15.35;;
38717;SDS011;24468;52.128;9.278;2023-02-20T08:39:11;28.25;;;16.40;;
38717;SDS011;24468;52.128;9.278;2023-02-20T08:41:43;21.70;;;15.75;;
38717;SDS011;24468;52.128;9.278;2023-02-20T08:44:10;20.50;;;15.90;;
38717;SDS011;24468;52.128;9.278;2023-02-20T08:46:37;19.67;;;15.55;;
38717;SDS011;24468;52.128;9.278;2023-02-20T08:49:08;20.48;;;15.95;;
38717;SDS011;24468;52.128;9.278;2023-02-20T08:51:34;27.50;;;16.33;;
38717;SDS011;24468;52.128;9.278;2023-02-20T08:53:59;21.83;;;17.67;;
38717;SDS011;24468;52.128;9.278;2023-02-20T08:56:25;23.50;;;16.30;;
38717;SDS011;24468;52.128;9.278;2023-02-20T08:58:51;23.10;;;17.15;;
38717;SDS011;24468;52.128;9.278;2023-02-20T09:01:17;23.00;;;16.85;;
38717;SDS011;24468;52.128;9.278;2023-02-20T09:03:43;21.35;;;17.40;;
38717;SDS011;24468;52.128;9.278;2023-02-20T09:06:08;26.17;;;18.90;;
38717;SDS011;24468;52.128;9.278;2023-02-20T09:08:34;25.77;;;19.55;;
38717;SDS011;24468;52.128;9.278;2023-02-20T09:10:59;25.95;;;18.60;;
38717;SDS011;24468;52.128;9.278;2023-02-20T09:13:25;24.67;;;17.50;;
38717;SDS011;24468;52.128;9.278;2023-02-20T09:15:50;26.42;;;20.20;;
38717;SDS011;24468;52.128;9.278;2023-02-20T09:18:16;27.25;;;18.92;;
38717;SDS011;24468;52.128;9.278;2023-02-20T09:20:41;22.65;;;18.95;;
38717;SDS011;24468;52.128;9.278;2023-02-20T09:23:07;28.02;;;18.67;;
38717;SDS011;24468;52.128;9.278;2023-02-20T09:25:34;24.58;;;18.33;;
38717;SDS011;24468;52.128;9.278;2023-02-20T09:28:00;24.83;;;18.33;;
38717;SDS011;24468;52.128;9.278;2023-02-20T09:30:25;27.33;;;19.90;;
38717;SDS011;24468;52.128;9.278;2023-02-20T09:32:52;24.00;;;18.95;;
38717;SDS011;24468;52.128;9.278;2023-02-20T09:35:25;24.90;;;18.73;;
38717;SDS011;24468;52.128;9.278;2023-02-20T09:37:54;23.95;;;18.80;;
38717;SDS011;24468;52.128;9.278;2023-02-20T09:40:20;25.20;;;18.38;;
38717;SDS011;24468;52.128;9.278;2023-02-20T09:43:00;31.02;;;22.17;;
38717;SDS011;24468;52.128;9.278;2023-02-20T09:45:30;28.65;;;19.88;;
38717;SDS011;24468;52.128;9.278;2023-02-20T09:50:32;23.80;;;17.90;;
38717;SDS011;24468;52.128;9.278;2023-02-20T09:56:17;24.35;;;19.70;;
38717;SDS011;24468;52.128;9.278;2023-02-20T09:58:51;21.45;;;18.02;;
38717;SDS011;24468;52.128;9.278;2023-02-20T10:02:03;24.85;;;19.80;;
38717;SDS011;24468;52.128;9.278;2023-02-20T10:04:37;24.67;;;18.15;;
38717;SDS011;24468;52.128;9.278;2023-02-20T10:07:23;25.15;;;20.08;;
38717;SDS011;24468;52.128;9.278;2023-02-20T10:10:17;27.17;;;24.30;;
38717;SDS011;24468;52.128;9.278;2023-02-20T10:12:58;32.40;;;21.77;;
38717;SDS011;24468;52.128;9.278;2023-02-20T10:19:01;30.33;;;20.38;;
38717;SDS011;24468;52.128;9.278;2023-02-20T10:22:01;29.67;;;20.45;;
38717;SDS011;24468;52.128;9.278;2023-02-20T10:25:07;27.20;;;20.73;;
38717;SDS011;24468;52.128;9.278;2023-02-20T10:30:31;31.98;;;20.70;;
38717;SDS011;24468;52.128;9.278;2023-02-20T10:35:44;27.83;;;19.23;;
38717;SDS011;24468;52.128;9.278;2023-02-20T10:38:28;23.95;;;18.95;;
38717;SDS011;24468;52.128;9.278;2023-02-20T10:41:04;25.90;;;19.70;;
38717;SDS011;24468;52.128;9.278;2023-02-20T10:43:47;25.33;;;18.45;;
38717;SDS011;24468;52.128;9.278;2023-02-20T10:46:35;24.48;;;17.95;;
38717;SDS011;24468;52.128;9.278;2023-02-20T10:52:30;24.90;;;18.08;;
38717;SDS011;24468;52.128;9.278;2023-02-20T10:55:14;22.05;;;18.48;;
38717;SDS011;24468;52.128;9.278;2023-02-20T10:57:48;26.23;;;18.15;;
38717;SDS011;24468;52.128;9.278;2023-02-20T11:00:24;25.13;;;17.13;;
38717;SDS011;24468;52.128;9.278;2023-02-20T11:02:58;29.30;;;18.20;;
38717;SDS011;24468;52.128;9.278;2023-02-20T11:05:34;23.35;;;16.67;;
38717;SDS011;24468;52.128;9.278;2023-02-20T11:08:05;22.85;;;17.25;;
38717;SDS011;24468;52.128;9.278;2023-02-20T11:10:30;27.40;;;17.92;;
38717;SDS011;24468;52.128;9.278;2023-02-20T11:12:59;23.13;;;19.42;;
38717;SDS011;24468;52.128;9.278;2023-02-20T11:15:27;26.80;;;18.33;;
38717;SDS011;24468;52.128;9.278;2023-02-20T11:17:57;24.38;;;18.90;;
38717;SDS011;24468;52.128;9.278;2023-02-20T11:23:05;28.45;;;19.95;;
38717;SDS011;24468;52.128;9.278;2023-02-20T11:25:32;25.05;;;20.02;;
38717;SDS011;24468;52.128;9.278;2023-02-20T11:30:57;27.42;;;20.83;;
38717;SDS011;24468;52.128;9.278;2023-02-20T11:33:28;24.75;;;18.55;;
38717;SDS011;24468;52.128;9.278;2023-02-20T11:36:07;28.00;;;20.37;;
38717;SDS011;24468;52.128;9.278;2023-02-20T11:38:42;29.00;;;20.48;;
38717;SDS011;24468;52.128;9.278;2023-02-20T11:41:20;27.33;;;18.25;;
38717;SDS011;24468;52.128;9.278;2023-02-20T11:46:37;27.75;;;21.20;;
38717;SDS011;24468;52.128;9.278;2023-02-20T11:49:10;32.00;;;23.55;;
38717;SDS011;24468;52.128;9.278;2023-02-20T11:51:50;32.88;;;20.85;;
38717;SDS011;24468;52.128;9.278;2023-02-20T11:54:17;31.13;;;18.75;;
38717;SDS011;24468;52.128;9.278;2023-02-20T12:04:59;23.77;;;18.20;;
38717;SDS011;24468;52.128;9.278;2023-02-20T12:07:40;26.50;;;18.80;;
38717;SDS011;24468;52.128;9.278;2023-02-20T12:10:26;33.47;;;20.30;;
38717;SDS011;24468;52.128;9.278;2023-02-20T12:13:02;28.92;;;21.38;;
38717;SDS011;24468;52.128;9.278;2023-02-20T12:15:29;30.55;;;19.52;;
38717;SDS011;24468;52.128;9.278;2023-02-20T12:18:09;24.33;;;18.17;;
38717;SDS011;24468;52.128;9.278;2023-02-20T12:20:52;29.77;;;19.48;;
38717;SDS011;24468;52.128;9.278;2023-02-20T12:27:18;29.15;;;19.13;;
38717;SDS011;24468;52.128;9.278;2023-02-20T12:33:08;30.65;;;19.35;;
38717;SDS011;24468;52.128;9.278;2023-02-20T12:38:47;30.35;;;19.83;;
38717;SDS011;24468;52.128;9.278;2023-02-20T12:47:40;33.30;;;19.33;;
38717;SDS011;24468;52.128;9.278;2023-02-20T12:50:17;37.78;;;21.08;;
38717;SDS011;24468;52.128;9.278;2023-02-20T12:56:08;30.63;;;20.63;;
38717;SDS011;24468;52.128;9.278;2023-02-20T13:02:19;28.90;;;20.35;;
38717;SDS011;24468;52.128;9.278;2023-02-20T13:04:56;32.35;;;20.98;;
38717;SDS011;24468;52.128;9.278;2023-02-20T13:07:27;33.20;;;20.73;;
38717;SDS011;24468;52.128;9.278;2023-02-20T13:10:06;31.85;;;19.52;;
38717;SDS011;24468;52.128;9.278;2023-02-20T13:12:41;29.63;;;18.55;;
38717;SDS011;24468;52.128;9.278;2023-02-20T13:18:25;28.80;;;19.88;;
38717;SDS011;24468;52.128;9.278;2023-02-20T13:21:14;30.17;;;23.15;;
38717;SDS011;24468;52.128;9.278;2023-02-20T13:23:42;25.70;;;20.27;;
38717;SDS011;24468;52.128;9.278;2023-02-20T13:29:09;27.80;;;20.65;;
38717;SDS011;24468;52.128;9.278;2023-02-20T13:31:48;24.15;;;17.73;;
38717;SDS011;24468;52.128;9.278;2023-02-20T13:36:41;28.13;;;15.38;;
38717;SDS011;24468;52.128;9.278;2023-02-20T13:47:00;22.98;;;16.50;;
38717;SDS011;24468;52.128;9.278;2023-02-20T13:54:53;19.05;;;14.45;;
38717;SDS011;24468;52.128;9.278;2023-02-20T13:57:50;20.45;;;14.43;;
38717;SDS011;24468;52.128;9.278;2023-02-20T14:00:26;20.92;;;13.45;;
38717;SDS011;24468;52.128;9.278;2023-02-20T14:03:16;19.23;;;13.40;;
38717;SDS011;24468;52.128;9.278;2023-02-20T14:06:10;18.02;;;12.93;;
38717;SDS011;24468;52.128;9.278;2023-02-20T14:08:37;20.65;;;14.05;;
38717;SDS011;24468;52.128;9.278;2023-02-20T14:11:33;18.58;;;13.80;;
38717;SDS011;24468;52.128;9.278;2023-02-20T14:14:12;15.88;;;11.98;;
38717;SDS011;24468;52.128;9.278;2023-02-20T14:17:04;14.45;;;11.38;;
38717;SDS011;24468;52.128;9.278;2023-02-20T14:19:44;15.02;;;11.32;;
38717;SDS011;24468;52.128;9.278;2023-02-20T14:27:37;18.88;;;13.50;;
38717;SDS011;24468;52.128;9.278;2023-02-20T14:32:41;16.08;;;12.15;;
38717;SDS011;24468;52.128;9.278;2023-02-20T14:35:15;17.08;;;11.75;;
38717;SDS011;24468;52.128;9.278;2023-02-20T14:40:45;16.85;;;12.00;;
38717;SDS011;24468;52.128;9.278;2023-02-20T14:43:15;19.77;;;12.18;;
38717;SDS011;24468;52.128;9.278;2023-02-20T14:45:56;16.73;;;12.10;;
38717;SDS011;24468;52.128;9.278;2023-02-20T14:48:48;15.20;;;11.85;;
38717;SDS011;24468;52.128;9.278;2023-02-20T14:51:21;13.57;;;10.85;;
38717;SDS011;24468;52.128;9.278;2023-02-20T14:53:59;16.33;;;12.30;;
38717;SDS011;24468;52.128;9.278;2023-02-20T14:56:47;12.95;;;10.20;;
38717;SDS011;24468;52.128;9.278;2023-02-20T15:01:58;15.20;;;10.98;;
38717;SDS011;24468;52.128;9.278;2023-02-20T15:04:28;13.82;;;10.10;;
38717;SDS011;24468;52.128;9.278;2023-02-20T15:06:59;13.25;;;10.45;;
38717;SDS011;24468;52.128;9.278;2023-02-20T15:09:35;14.20;;;9.88;;
38717;SDS011;24468;52.128;9.278;2023-02-20T15:12:07;13.50;;;9.23;;
38717;SDS011;24468;52.128;9.278;2023-02-20T15:14:45;12.60;;;8.35;;
38717;SDS011;24468;52.128;9.278;2023-02-20T15:17:30;9.88;;;8.00;;
38717;SDS011;24468;52.128;9.278;2023-02-20T15:20:14;12.73;;;8.48;;
38717;SDS011;24468;52.128;9.278;2023-02-20T15:22:41;10.85;;;8.00;;
38717;SDS011;24468;52.128;9.278;2023-02-20T15:28:04;9.50;;;7.60;;
38717;SDS011;24468;52.128;9.278;2023-02-20T15:30:32;12.30;;;8.60;;
38717;SDS011;24468;52.128;9.278;2023-02-20T15:32:58;13.98;;;8.85;;
38717;SDS011;24468;52.128;9.278;2023-02-20T15:35:25;11.73;;;7.55;;
38717;SDS011;24468;52.128;9.278;2023-02-20T15:37:54;9.73;;;7.15;;
38717;SDS011;24468;52.128;9.278;2023-02-20T15:40:26;10.35;;;7.45;;
38717;SDS011;24468;52.128;9.278;2023-02-20T15:42:57;12.77;;;8.30;;
38717;SDS011;24468;52.128;9.278;2023-02-20T15:45:24;11.00;;;8.07;;
38717;SDS011;24468;52.128;9.278;2023-02-20T15:47:53;9.95;;;7.45;;
38717;SDS011;24468;52.128;9.278;2023-02-20T15:50:19;12.43;;;7.60;;
38717;SDS011;24468;52.128;9.278;2023-02-20T15:52:45;9.60;;;7.13;;
38717;SDS011;24468;52.128;9.278;2023-02-20T15:55:15;9.80;;;7.43;;
38717;SDS011;24468;52.128;9.278;2023-02-20T15:57:44;7.97;;;7.03;;
38717;SDS011;24468;52.128;9.278;2023-02-20T16:00:31;8.45;;;6.45;;
38717;SDS011;24468;52.128;9.278;2023-02-20T16:02:58;8.75;;;6.95;;
38717;SDS011;24468;52.128;9.278;2023-02-20T16:05:26;8.20;;;6.60;;
38717;SDS011;24468;52.128;9.278;2023-02-20T16:07:52;11.15;;;7.82;;
38717;SDS011;24468;52.128;9.278;2023-02-20T16:10:19;7.35;;;6.15;;
38717;SDS011;24468;52.128;9.278;2023-02-20T16:12:49;8.50;;;6.50;;
38717;SDS011;24468;52.128;9.278;2023-02-20T16:15:18;8.43;;;7.05;;
38717;SDS011;24468;52.128;9.278;2023-02-20T16:17:46;8.65;;;7.07;;
38717;SDS011;24468;52.128;9.278;2023-02-20T16:20:14;9.13;;;6.55;;
38717;SDS011;24468;52.128;9.278;2023-02-20T16:22:51;10.82;;;6.63;;
38717;SDS011;24468;52.128;9.278;2023-02-20T16:25:18;10.55;;;7.18;;
38717;SDS011;24468;52.128;9.278;2023-02-20T16:27:46;8.35;;;6.53;;
38717;SDS011;24468;52.128;9.278;2023-02-20T16:30:35;7.97;;;6.90;;
38717;SDS011;24468;52.128;9.278;2023-02-20T16:33:08;8.60;;;7.68;;
38717;SDS011;24468;52.128;9.278;2023-02-20T16:35:42;9.60;;;6.72;;
38717;SDS011;24468;52.128;9.278;2023-02-20T16:38:09;8.10;;;6.90;;
38717;SDS011;24468;52.128;9.278;2023-02-20T16:40:35;6.75;;;5.35;;
38717;SDS011;24468;52.128;9.278;2023-02-20T16:43:01;8.60;;;6.30;;
38717;SDS011;24468;52.128;9.278;2023-02-20T16:45:28;6.03;;;5.15;;
38717;SDS011;24468;52.128;9.278;2023-02-20T16:47:54;9.38;;;7.90;;
38717;SDS011;24468;52.128;9.278;2023-02-20T16:50:22;7.88;;;6.53;;
38717;SDS011;24468;52.128;9.278;2023-02-20T16:52:54;6.85;;;5.43;;
38717;SDS011;24468;52.128;9.278;2023-02-20T16:55:23;8.88;;;6.00;;
38717;SDS011;24468;52.128;9.278;2023-02-20T16:58:01;8.30;;;6.25;;
38717;SDS011;24468;52.128;9.278;2023-02-20T17:00:29;7.85;;;5.60;;
38717;SDS011;24468;52.128;9.278;2023-02-20T17:03:06;5.65;;;4.70;;